Norfolk, Virginia
Traffic Map
Current Weather Conditions
Norfolk, Virginia
Clear Haze
Clear
80°
Feels Like: 84°
Wind Chill: 80° Ceiling: Unl
Heat Index: 84° Visibility: 5mi
Dew Point: 73° Wind: 0mph
Humidity: 79% Direction: ° ()
Pressure: 29.93in Gusts: 0mph
Raw Report DataKORF 041151Z AUTO 00000KT 5SM HZ CLR 27/23 A2993 RMK AO2 SLP136 T02670228 10267 20239 53013 TSNO
Traffic Incident Summary
Active as of:
Severity:
Category:
InformationThere was an issue retrieving the traffic information for this location. Please try a different location or try again shortly.
Advertisements
Track Severe Weather on mobile